Time;durP1;ratioP1;P1;durP2;ratioP2;P2;SDS_P1;SDS_P2;PMS_P1;PMS_P2;Temp;Humidity;BMP_temperature;BMP_pressure;BME280_temperature;BME280_humidity;BME280_pressure;Samples;Min_cycle;Max_cycle;Signal;HPM_P1;HPM_P2
2023/04/20 00:00:22;;;;;;;6.15;3.60;;;7.40;99.90;;;;;;6332815;22;20057;-67
2023/04/20 00:02:47;;;;;;;3.55;2.95;;;7.40;99.90;;;;;;6332758;22;20083;-67
2023/04/20 00:05:13;;;;;;;4.10;3.03;;;7.50;99.90;;;;;;6332482;22;20027;-67
2023/04/20 00:07:40;;;;;;;6.05;3.90;;;7.60;99.90;;;;;;6279273;22;20024;-67
2023/04/20 00:10:07;;;;;;;6.07;2.97;;;7.60;99.90;;;;;;6333609;22;20331;-68
2023/04/20 00:12:33;;;;;;;3.65;2.70;;;7.70;99.90;;;;;;6304950;22;20461;-68
2023/04/20 00:14:59;;;;;;;7.57;2.67;;;7.70;99.90;;;;;;6333160;22;20022;-68
2023/04/20 00:17:27;;;;;;;4.32;3.17;;;7.70;99.90;;;;;;6306131;22;20019;-68
2023/04/20 00:19:53;;;;;;;4.13;2.85;;;7.90;99.90;;;;;;6305138;22;20410;-67
2023/04/20 00:22:18;;;;;;;4.70;3.10;;;7.90;99.90;;;;;;6305461;22;20062;-68
2023/04/20 00:24:44;;;;;;;3.13;2.35;;;7.90;99.90;;;;;;6332738;22;20010;-68
2023/04/20 00:27:10;;;;;;;4.63;2.83;;;7.90;99.90;;;;;;6332806;22;20018;-68
2023/04/20 00:29:36;;;;;;;3.75;3.10;;;8.00;99.90;;;;;;6305018;22;20026;-68
2023/04/20 00:32:02;;;;;;;4.32;2.90;;;8.00;99.90;;;;;;6332942;22;20343;-68
2023/04/20 00:34:27;;;;;;;6.95;2.70;;;8.00;99.90;;;;;;6305222;22;20019;-68
2023/04/20 00:36:53;;;;;;;4.15;2.83;;;8.00;99.90;;;;;;6332669;22;20094;-68
2023/04/20 00:39:19;;;;;;;5.63;3.05;;;8.00;99.90;;;;;;6304801;22;20106;-68
2023/04/20 00:41:44;;;;;;;4.03;2.90;;;8.00;99.90;;;;;;6304649;22;20447;-68
2023/04/20 00:44:12;;;;;;;5.38;2.65;;;8.00;99.90;;;;;;6333145;22;20019;-68
2023/04/20 00:46:39;;;;;;;7.28;4.05;;;8.10;99.90;;;;;;6333010;22;20018;-68
2023/04/20 00:49:06;;;;;;;5.10;2.75;;;8.10;99.90;;;;;;6332905;22;20145;-68
2023/04/20 00:51:32;;;;;;;6.40;2.88;;;8.10;99.90;;;;;;6305534;22;20094;-68
2023/04/20 00:53:58;;;;;;;5.47;3.03;;;8.20;99.90;;;;;;6305919;22;20018;-68
2023/04/20 00:56:24;;;;;;;4.53;3.15;;;8.20;99.90;;;;;;6332593;22;20015;-68
2023/04/20 00:58:50;;;;;;;8.48;3.33;;;8.30;99.90;;;;;;6305222;22;20137;-68
2023/04/20 01:01:16;;;;;;;3.95;2.50;;;8.30;99.90;;;;;;6292556;22;20023;-68
2023/04/20 01:03:45;;;;;;;6.32;2.80;;;8.40;99.90;;;;;;6332429;22;20030;-68
2023/04/20 01:06:13;;;;;;;3.78;2.40;;;8.30;99.90;;;;;;6333194;22;20119;-68
2023/04/20 01:08:49;;;;;;;3.90;2.95;;;8.40;99.90;;;;;;6333117;22;20021;-68
2023/04/20 01:11:15;;;;;;;3.97;2.63;;;8.40;99.90;;;;;;6305161;22;20030;-68
2023/04/20 01:13:41;;;;;;;4.50;3.00;;;8.50;99.90;;;;;;6332592;22;20087;-68
2023/04/20 01:16:07;;;;;;;3.40;2.70;;;8.50;99.90;;;;;;6332833;22;20023;-68
2023/04/20 01:18:45;;;;;;;3.50;2.35;;;8.50;99.90;;;;;;6333188;22;20158;-68
2023/04/20 01:21:12;;;;;;;5.03;3.08;;;8.60;99.90;;;;;;6332371;22;20442;-68
2023/04/20 01:23:38;;;;;;;4.88;2.60;;;8.60;99.90;;;;;;6304393;22;20033;-68
2023/04/20 01:26:12;;;;;;;5.43;2.90;;;8.60;99.90;;;;;;6332289;22;20102;-68
2023/04/20 01:28:37;;;;;;;4.43;2.63;;;8.70;99.90;;;;;;6332265;22;20022;-69
2023/04/20 01:31:05;;;;;;;4.90;2.50;;;8.70;99.90;;;;;;6332220;22;20022;-68
2023/04/20 01:33:31;;;;;;;7.97;2.40;;;8.70;99.90;;;;;;6304252;22;20532;-68
2023/04/20 01:35:57;;;;;;;4.93;2.55;;;8.80;99.90;;;;;;6332577;22;20057;-68
2023/04/20 01:38:24;;;;;;;5.72;2.85;;;8.80;99.90;;;;;;6332066;22;20011;-68
2023/04/20 01:40:50;;;;;;;4.03;2.83;;;8.80;99.90;;;;;;6304181;22;20422;-68
2023/04/20 01:43:18;;;;;;;6.15;2.45;;;8.80;99.90;;;;;;6304536;22;20090;-68
2023/04/20 01:45:44;;;;;;;4.50;2.50;;;8.80;99.90;;;;;;6304542;22;20048;-68
2023/04/20 01:48:10;;;;;;;4.40;2.60;;;8.90;99.90;;;;;;6304136;22;20023;-68
2023/04/20 01:50:35;;;;;;;4.93;2.60;;;8.80;99.90;;;;;;6331332;22;20019;-68
2023/04/20 01:53:01;;;;;;;6.25;2.50;;;8.90;99.90;;;;;;6331546;22;20019;-68
2023/04/20 01:55:27;;;;;;;4.85;2.58;;;8.90;99.90;;;;;;6331822;22;20015;-68
2023/04/20 01:57:53;;;;;;;6.78;2.55;;;8.90;99.90;;;;;;6332074;22;20102;-68
2023/04/20 02:00:18;;;;;;;2.60;2.30;;;8.90;99.90;;;;;;6303968;22;20026;-68
2023/04/20 02:02:44;;;;;;;7.90;2.67;;;8.90;99.90;;;;;;6303883;22;20098;-69
2023/04/20 02:05:10;;;;;;;5.22;2.28;;;8.80;99.90;;;;;;6303570;22;20101;-68
2023/04/20 02:07:36;;;;;;;4.13;2.22;;;8.90;99.90;;;;;;6331415;22;20023;-68
2023/04/20 02:10:03;;;;;;;4.43;2.75;;;8.90;99.90;;;;;;6303707;22;20023;-68
2023/04/20 02:12:29;;;;;;;4.22;2.33;;;8.80;99.90;;;;;;6332342;22;20119;-69
2023/04/20 02:14:55;;;;;;;6.00;2.60;;;8.80;99.90;;;;;;6331661;22;20433;-68
2023/04/20 02:17:20;;;;;;;5.72;2.78;;;8.90;99.90;;;;;;6332098;22;20022;-69
2023/04/20 02:19:46;;;;;;;4.38;2.33;;;8.90;99.90;;;;;;6331622;22;20414;-68
2023/04/20 02:22:12;;;;;;;6.28;2.67;;;8.90;99.90;;;;;;6303661;22;20029;-68
2023/04/20 02:24:38;;;;;;;3.22;2.10;;;8.90;99.90;;;;;;6304108;22;20134;-68
2023/04/20 02:27:04;;;;;;;4.47;2.72;;;8.80;99.90;;;;;;6332283;22;20450;-68
2023/04/20 02:29:30;;;;;;;4.15;2.22;;;8.80;99.90;;;;;;6304040;22;20022;-68
2023/04/20 02:31:56;;;;;;;3.40;2.13;;;8.80;99.90;;;;;;6331783;22;20018;-68
2023/04/20 02:34:22;;;;;;;6.00;2.28;;;8.80;99.90;;;;;;6304327;22;20014;-68
2023/04/20 02:36:48;;;;;;;6.22;2.75;;;8.80;99.90;;;;;;6303722;22;20014;-68
2023/04/20 02:39:14;;;;;;;4.38;2.50;;;8.70;99.90;;;;;;6331498;22;20022;-68
2023/04/20 02:41:40;;;;;;;4.60;2.53;;;8.70;99.90;;;;;;6331691;22;20015;-68
2023/04/20 02:44:05;;;;;;;3.05;2.35;;;8.70;99.90;;;;;;6332092;22;20021;-68
2023/04/20 02:46:31;;;;;;;3.38;2.45;;;8.70;99.90;;;;;;6304442;22;20083;-68
2023/04/20 02:48:57;;;;;;;2.72;2.05;;;8.60;99.90;;;;;;6330806;22;20029;-69
2023/04/20 02:51:22;;;;;;;7.88;3.20;;;8.50;99.90;;;;;;6303361;22;20050;-69
2023/04/20 02:53:48;;;;;;;2.78;2.47;;;8.50;99.90;;;;;;6332200;22;20067;-69
2023/04/20 02:56:14;;;;;;;11.63;3.08;;;8.60;99.90;;;;;;6332491;22;20044;-68
2023/04/20 02:58:39;;;;;;;4.72;2.47;;;8.60;99.90;;;;;;6332428;22;20357;-68
2023/04/20 05:08:37;;;;;;;4.00;2.63;;;8.30;99.90;;;;;;6317717;22;20033;-68
2023/04/20 05:11:02;;;;;;;3.15;2.03;;;8.30;99.90;;;;;;6332766;22;20019;-68
2023/04/20 05:13:28;;;;;;;4.40;2.78;;;8.20;99.90;;;;;;6333124;22;20159;-68
2023/04/20 05:15:54;;;;;;;5.68;3.35;;;8.30;99.90;;;;;;6304297;22;20046;-68
2023/04/20 05:18:20;;;;;;;4.63;2.17;;;8.30;99.90;;;;;;6332804;22;20117;-68
2023/04/20 05:20:45;;;;;;;5.60;2.38;;;8.30;99.90;;;;;;6304744;22;20022;-68
2023/04/20 05:23:11;;;;;;;5.03;2.78;;;8.20;99.90;;;;;;6305102;22;20105;-68
2023/04/20 05:25:37;;;;;;;4.32;2.58;;;8.20;99.90;;;;;;6332586;22;20341;-68
2023/04/20 05:28:02;;;;;;;4.03;2.17;;;8.20;99.90;;;;;;6333144;22;20019;-67
2023/04/20 05:30:28;;;;;;;6.13;2.30;;;8.20;99.90;;;;;;6304516;22;20029;-68
2023/04/20 05:32:54;;;;;;;3.83;2.40;;;8.10;99.90;;;;;;6305658;22;20015;-69
2023/04/20 05:35:21;;;;;;;3.28;2.65;;;8.20;99.90;;;;;;6304948;22;20134;-68
2023/04/20 05:37:47;;;;;;;3.00;2.22;;;8.20;99.90;;;;;;6333076;22;20015;-68
2023/04/20 05:40:12;;;;;;;3.55;2.40;;;8.10;99.90;;;;;;6304299;22;20408;-68
2023/04/20 05:42:38;;;;;;;2.83;2.10;;;8.10;99.90;;;;;;6304313;22;20065;-68
2023/04/20 05:45:05;;;;;;;6.40;2.28;;;8.10;99.90;;;;;;6332079;22;20465;-68
2023/04/20 05:47:31;;;;;;;3.60;2.70;;;8.10;99.90;;;;;;6332257;22;20044;-67
2023/04/20 05:49:56;;;;;;;2.63;2.42;;;8.10;99.90;;;;;;6304116;22;20082;-68
2023/04/20 05:52:22;;;;;;;4.60;2.67;;;8.00;99.90;;;;;;6332429;22;20069;-68
2023/04/20 05:54:48;;;;;;;3.67;2.28;;;8.00;99.90;;;;;;6332395;22;20342;-68
2023/04/20 05:57:14;;;;;;;9.02;2.88;;;8.00;99.90;;;;;;6332708;22;20058;-68
2023/04/20 05:59:40;;;;;;;6.65;2.80;;;7.90;99.90;;;;;;6332290;22;20461;-68
2023/04/20 06:02:06;;;;;;;5.80;2.45;;;7.80;99.90;;;;;;6304594;22;20023;-68
2023/04/20 06:04:32;;;;;;;3.10;2.78;;;7.80;99.90;;;;;;6304515;22;20411;-68
2023/04/20 06:06:59;;;;;;;4.32;2.75;;;7.80;99.90;;;;;;6304475;22;20090;-69
2023/04/20 06:09:25;;;;;;;4.53;3.10;;;7.80;99.90;;;;;;6331808;22;20023;-68
2023/04/20 06:11:51;;;;;;;5.38;3.15;;;7.80;99.90;;;;;;6332141;22;20466;-68
2023/04/20 06:14:16;;;;;;;6.10;2.70;;;7.70;99.90;;;;;;6303938;22;20018;-67
2023/04/20 06:16:42;;;;;;;4.35;2.80;;;7.60;99.90;;;;;;6304081;22;20409;-67
2023/04/20 06:19:08;;;;;;;4.60;2.97;;;7.60;99.90;;;;;;6332198;22;20015;-68
2023/04/20 06:21:35;;;;;;;8.48;3.05;;;7.70;99.90;;;;;;6332114;22;20537;-67
2023/04/20 06:24:01;;;;;;;5.63;3.50;;;7.70;99.90;;;;;;6303896;22;20025;-68
2023/04/20 06:26:26;;;;;;;3.65;2.95;;;7.50;99.90;;;;;;6303958;22;20354;-68
2023/04/20 06:28:52;;;;;;;6.13;3.50;;;7.60;99.90;;;;;;6331774;22;20022;-68
2023/04/20 06:31:18;;;;;;;5.13;3.20;;;7.50;99.90;;;;;;6303852;22;20559;-68
2023/04/20 06:33:44;;;;;;;4.93;3.53;;;7.40;99.90;;;;;;6304038;22;20053;-68
2023/04/20 06:36:10;;;;;;;3.88;2.90;;;7.40;99.90;;;;;;6332205;22;20015;-67
2023/04/20 06:38:36;;;;;;;7.60;3.10;;;7.50;99.90;;;;;;6332594;22;20014;-68
2023/04/20 06:41:02;;;;;;;4.43;3.70;;;7.50;99.90;;;;;;6303833;22;20406;-67
2023/04/20 06:43:28;;;;;;;5.00;3.33;;;7.40;99.90;;;;;;6303357;22;20046;-67
2023/04/20 06:45:54;;;;;;;5.72;3.20;;;7.20;99.90;;;;;;6304123;22;20019;-68
2023/04/20 06:48:20;;;;;;;7.88;4.93;;;7.20;99.90;;;;;;6278263;22;20131;-68
2023/04/20 06:50:49;;;;;;;5.68;3.70;;;7.20;99.90;;;;;;6278503;22;20050;-68
2023/04/20 06:53:16;;;;;;;7.22;3.72;;;7.10;99.90;;;;;;6303882;22;20021;-67
2023/04/20 06:55:42;;;;;;;6.95;3.50;;;7.00;99.90;;;;;;6332257;22;20402;-68
2023/04/20 06:58:08;;;;;;;8.35;3.42;;;7.00;99.90;;;;;;6332191;22;20015;-68
2023/04/20 07:00:34;;;;;;;7.90;3.58;;;7.00;99.90;;;;;;6304196;22;20052;-68
2023/04/20 07:03:01;;;;;;;7.53;3.78;;;7.00;99.90;;;;;;6332632;22;20018;-68
2023/04/20 07:05:29;;;;;;;5.43;3.70;;;7.00;99.90;;;;;;6305121;22;20033;-68
2023/04/20 07:07:55;;;;;;;6.72;3.67;;;7.00;99.90;;;;;;6332582;22;20159;-69
2023/04/20 07:10:21;;;;;;;6.35;3.33;;;6.90;99.90;;;;;;6332794;22;20386;-69
2023/04/20 07:12:47;;;;;;;4.88;3.50;;;6.90;99.90;;;;;;6304805;22;20068;-69
2023/04/20 07:15:13;;;;;;;6.70;3.17;;;6.80;99.90;;;;;;6304210;22;20018;-69
2023/04/20 07:17:39;;;;;;;7.38;3.85;;;6.80;99.90;;;;;;6303607;22;20485;-67
2023/04/20 07:20:07;;;;;;;4.90;3.88;;;6.90;99.90;;;;;;6304476;22;20019;-68
2023/04/20 07:22:37;;;;;;;13.55;4.30;;;6.80;99.90;;;;;;6279084;22;20023;-67
2023/04/20 07:25:05;;;;;;;9.27;4.38;;;6.80;99.90;;;;;;6333340;22;20018;-67
2023/04/20 07:27:37;;;;;;;7.22;3.95;;;6.80;99.90;;;;;;6333731;22;20042;-67
2023/04/20 07:30:05;;;;;;;8.55;3.67;;;6.80;99.90;;;;;;6333688;22;20026;-67
2023/04/20 07:32:32;;;;;;;10.75;5.30;;;6.80;99.90;;;;;;6334738;22;20114;-66
2023/04/20 07:34:58;;;;;;;7.10;4.15;;;6.80;99.90;;;;;;6334498;22;20499;-66
2023/04/20 07:37:23;;;;;;;7.43;3.50;;;6.80;99.90;;;;;;6333735;22;20029;-66
2023/04/20 07:39:52;;;;;;;5.35;3.83;;;6.90;99.90;;;;;;6333899;22;20094;-66
2023/04/20 07:42:18;;;;;;;6.82;3.75;;;6.90;99.90;;;;;;6333795;22;20014;-66
2023/04/20 07:44:44;;;;;;;6.13;4.00;;;7.00;99.90;;;;;;6334832;22;20022;-66
2023/04/20 07:47:10;;;;;;;5.60;3.65;;;7.00;99.90;;;;;;6334547;22;20064;-66
2023/04/20 07:49:37;;;;;;;5.43;3.85;;;7.00;99.90;;;;;;6331151;22;20015;-65
2023/04/20 07:52:03;;;;;;;7.95;3.70;;;7.10;99.90;;;;;;6334027;22;20007;-65
2023/04/20 07:54:29;;;;;;;9.32;3.63;;;7.10;99.90;;;;;;6306129;22;20022;-65
2023/04/20 07:56:55;;;;;;;6.13;4.25;;;7.20;99.90;;;;;;6305611;22;20565;-66
2023/04/20 07:59:21;;;;;;;7.05;4.30;;;7.10;99.90;;;;;;6333646;22;20015;-66
2023/04/20 08:01:46;;;;;;;5.65;3.85;;;7.20;99.90;;;;;;6305550;22;20308;-66
2023/04/20 08:04:12;;;;;;;6.82;3.60;;;7.20;99.90;;;;;;6333948;22;20021;-66
2023/04/20 08:06:38;;;;;;;6.57;3.83;;;7.30;99.90;;;;;;6304518;22;20530;-66
2023/04/20 08:09:04;;;;;;;6.30;3.58;;;7.30;99.90;;;;;;6332327;22;20032;-65
2023/04/20 08:11:29;;;;;;;7.38;4.28;;;7.20;99.90;;;;;;6333584;22;20022;-66
2023/04/20 08:13:55;;;;;;;7.07;4.47;;;7.20;99.90;;;;;;6306123;22;20371;-66
2023/04/20 08:16:21;;;;;;;6.75;4.00;;;7.20;99.90;;;;;;6305012;22;20019;-66
2023/04/20 08:18:46;;;;;;;8.50;4.50;;;7.30;99.90;;;;;;6332714;22;20022;-66
2023/04/20 08:21:13;;;;;;;7.03;4.38;;;7.40;99.90;;;;;;6333005;22;20014;-66
2023/04/20 08:23:39;;;;;;;10.18;4.07;;;7.40;99.90;;;;;;6305033;22;20019;-66
2023/04/20 08:26:04;;;;;;;6.30;3.60;;;7.30;99.90;;;;;;6332645;22;20093;-66
2023/04/20 08:28:30;;;;;;;10.10;4.00;;;7.40;99.90;;;;;;6332316;22;20027;-66
2023/04/20 08:30:56;;;;;;;7.05;4.15;;;7.40;99.90;;;;;;6333594;22;20049;-66
2023/04/20 08:33:21;;;;;;;6.88;4.18;;;7.40;99.90;;;;;;6305705;22;20019;-67
2023/04/20 08:35:50;;;;;;;7.80;5.15;;;7.50;99.90;;;;;;6333034;22;20010;-67
2023/04/20 08:38:16;;;;;;;9.55;5.20;;;7.60;99.90;;;;;;6305095;22;20011;-66
2023/04/20 08:40:42;;;;;;;7.50;5.40;;;7.60;99.90;;;;;;6331734;22;20327;-66
2023/04/20 08:43:08;;;;;;;6.80;4.28;;;7.60;99.90;;;;;;6333923;22;20431;-66
2023/04/20 08:45:33;;;;;;;8.38;4.82;;;7.70;99.90;;;;;;6333753;22;20061;-67
2023/04/20 08:48:04;;;;;;;11.30;4.82;;;7.70;99.90;;;;;;6334149;22;20092;-67
2023/04/20 08:50:30;;;;;;;6.90;4.30;;;7.70;99.90;;;;;;6305623;22;20023;-65
2023/04/20 08:52:56;;;;;;;8.13;4.95;;;7.70;99.90;;;;;;6333472;22;20030;-66
2023/04/20 08:55:22;;;;;;;9.32;5.60;;;7.70;99.90;;;;;;6304641;22;20011;-66
2023/04/20 08:57:51;;;;;;;7.75;3.90;;;7.70;99.90;;;;;;6303434;22;20127;-67
2023/04/20 09:00:17;;;;;;;6.68;4.28;;;7.60;99.90;;;;;;6332858;22;20011;-66
2023/04/20 09:02:51;;;;;;;7.35;4.82;;;7.80;99.90;;;;;;6333426;22;20034;-65
2023/04/20 09:05:30;;;;;;;8.40;5.38;;;7.80;99.90;;;;;;6333749;22;20018;-67
2023/04/20 09:07:58;;;;;;;8.38;5.20;;;7.90;99.90;;;;;;6303643;22;20019;-66
2023/04/20 09:10:26;;;;;;;6.95;4.65;;;7.90;99.90;;;;;;6364570;22;20365;-66
2023/04/20 09:12:55;;;;;;;6.78;4.53;;;8.00;99.90;;;;;;6337965;22;20334;-67
2023/04/20 09:15:28;;;;;;;9.85;6.00;;;8.00;99.90;;;;;;6336840;22;20023;-66
2023/04/20 09:17:54;;;;;;;10.95;5.22;;;8.00;99.90;;;;;;6336766;22;20026;-67
2023/04/20 09:20:31;;;;;;;9.18;4.72;;;8.00;99.90;;;;;;6336563;22;20026;-66
2023/04/20 09:22:56;;;;;;;9.02;6.38;;;8.00;99.90;;;;;;6365073;22;20018;-67
2023/04/20 09:25:25;;;;;;;8.07;5.55;;;8.20;99.90;;;;;;6365121;22;20490;-68
2023/04/20 09:27:58;;;;;;;7.10;5.28;;;8.10;99.90;;;;;;6310756;22;20029;-67
2023/04/20 09:30:35;;;;;;;5.50;4.78;;;8.30;99.90;;;;;;6336790;22;20018;-67
2023/04/20 09:33:02;;;;;;;7.72;5.38;;;8.40;99.90;;;;;;6364493;22;20716;-68
2023/04/20 09:35:28;;;;;;;9.32;5.20;;;8.40;99.90;;;;;;6365354;22;20063;-68
2023/04/20 09:37:55;;;;;;;7.53;4.68;;;8.40;99.90;;;;;;6364314;22;20075;-68
2023/04/20 09:40:23;;;;;;;12.25;5.82;;;8.40;99.90;;;;;;6364764;22;20026;-68
2023/04/20 09:42:53;;;;;;;12.60;5.80;;;8.50;99.90;;;;;;6364869;22;20022;-68
2023/04/20 09:45:19;;;;;;;8.68;5.57;;;8.50;99.90;;;;;;6364778;22;20018;-68
2023/04/20 09:47:46;;;;;;;7.47;5.68;;;8.50;99.90;;;;;;6336343;22;20014;-68
2023/04/20 09:50:12;;;;;;;8.45;5.53;;;8.50;99.90;;;;;;6364437;22;20054;-67
2023/04/20 09:52:38;;;;;;;9.38;5.85;;;8.50;99.90;;;;;;6364540;22;20053;-66
2023/04/20 09:55:08;;;;;;;11.32;5.75;;;8.70;99.90;;;;;;6364943;22;20015;-66
2023/04/20 09:57:34;;;;;;;8.82;6.47;;;8.70;99.90;;;;;;6335256;22;20323;-67
2023/04/20 10:00:01;;;;;;;9.25;6.13;;;8.70;99.90;;;;;;6363704;22;20018;-67
2023/04/20 10:02:27;;;;;;;8.95;5.78;;;8.80;99.90;;;;;;6363736;22;20118;-67
2023/04/20 10:04:57;;;;;;;11.07;6.65;;;8.80;99.90;;;;;;6364076;22;20129;-68
2023/04/20 10:07:28;;;;;;;14.70;6.78;;;8.80;99.90;;;;;;6334560;22;20022;-69
2023/04/20 10:10:07;;;;;;;9.90;6.78;;;8.80;99.90;;;;;;6364630;22;20300;-69
2023/04/20 10:12:45;;;;;;;11.38;6.65;;;8.80;99.90;;;;;;6335537;22;20338;-69
2023/04/20 10:15:11;;;;;;;11.60;6.30;;;8.80;99.90;;;;;;6363520;22;20071;-68
2023/04/20 10:17:36;;;;;;;13.88;6.97;;;8.70;99.90;;;;;;6363747;22;20022;-68
2023/04/20 10:20:03;;;;;;;10.30;6.53;;;8.70;99.90;;;;;;6335410;22;20033;-68
2023/04/20 10:22:34;;;;;;;10.13;6.53;;;8.70;99.90;;;;;;6334851;22;20093;-68
2023/04/20 10:25:01;;;;;;;11.07;6.78;;;8.80;99.90;;;;;;6363633;22;20346;-68
2023/04/20 10:27:27;;;;;;;11.90;6.80;;;8.80;99.90;;;;;;6363820;22;20367;-67
2023/04/20 10:29:53;;;;;;;11.02;7.45;;;8.70;99.90;;;;;;6335558;22;20025;-68
2023/04/20 10:32:27;;;;;;;10.15;7.15;;;8.80;99.90;;;;;;6335476;22;20029;-68
2023/04/20 10:35:05;;;;;;;14.23;7.43;;;8.80;99.90;;;;;;6335733;22;20014;-69
2023/04/20 10:37:31;;;;;;;10.98;6.95;;;8.80;99.90;;;;;;6363269;22;20014;-69
2023/04/20 10:39:57;;;;;;;10.88;8.02;;;8.90;99.90;;;;;;6363537;22;20018;-69
2023/04/20 10:42:25;;;;;;;11.13;7.97;;;8.90;99.90;;;;;;6363595;22;20056;-69
2023/04/20 10:44:52;;;;;;;11.07;8.00;;;9.00;99.90;;;;;;6335602;22;20018;-69
2023/04/20 10:47:29;;;;;;;8.93;7.35;;;9.10;99.90;;;;;;6362997;22;20117;-68
2023/04/20 10:50:08;;;;;;;12.43;8.27;;;9.20;99.90;;;;;;6361272;22;20083;-69
2023/04/20 10:52:36;;;;;;;17.13;8.68;;;9.30;99.90;;;;;;6310753;22;20018;-70
2023/04/20 10:55:02;;;;;;;10.60;7.25;;;9.40;99.90;;;;;;6365456;22;20075;-69
2023/04/20 10:57:28;;;;;;;13.70;7.68;;;9.60;99.90;;;;;;6364619;22;20483;-69
2023/04/20 10:59:54;;;;;;;13.60;8.88;;;9.70;99.90;;;;;;6366124;22;20049;-68
2023/04/20 11:02:20;;;;;;;12.73;8.48;;;9.90;99.90;;;;;;6339474;22;20018;-68
2023/04/20 11:04:46;;;;;;;10.48;7.43;;;10.00;99.90;;;;;;6367672;22;20089;-69
2023/04/20 11:07:12;;;;;;;9.25;7.22;;;10.00;99.90;;;;;;6339052;22;20041;-69
2023/04/20 11:09:38;;;;;;;10.57;7.53;;;10.00;99.90;;;;;;6367865;22;20014;-69
2023/04/20 11:12:05;;;;;;;10.02;7.30;;;10.00;99.90;;;;;;6368375;22;20103;-68
2023/04/20 11:14:37;;;;;;;9.98;7.22;;;9.90;99.90;;;;;;6367948;22;20071;-68
2023/04/20 11:17:03;;;;;;;11.68;8.65;;;10.00;99.90;;;;;;6336995;22;20026;-69
2023/04/20 11:19:36;;;;;;;10.77;6.93;;;10.10;99.90;;;;;;6338554;22;20033;-69
2023/04/20 11:22:03;;;;;;;10.10;7.05;;;10.10;99.90;;;;;;6368087;22;20018;-70
2023/04/20 11:24:32;;;;;;;12.60;7.05;;;10.10;99.90;;;;;;6367779;22;20033;-69
2023/04/20 11:27:00;;;;;;;10.52;6.82;;;10.20;99.90;;;;;;6367914;22;20022;-70
2023/04/20 11:29:34;;;;;;;12.98;7.40;;;10.30;99.90;;;;;;6339067;22;20450;-71
2023/04/20 11:32:05;;;;;;;9.73;6.43;;;10.20;99.90;;;;;;6339237;22;20029;-71
2023/04/20 11:34:33;;;;;;;11.38;7.60;;;10.10;99.90;;;;;;6339046;22;20053;-69
2023/04/20 11:37:10;;;;;;;12.20;7.20;;;10.00;99.90;;;;;;6367269;22;20094;-69
2023/04/20 11:39:37;;;;;;;12.80;7.82;;;10.00;99.90;;;;;;6367715;22;20025;-69
2023/04/20 11:42:03;;;;;;;13.15;8.32;;;10.00;99.90;;;;;;6339348;22;20019;-69
2023/04/20 11:44:29;;;;;;;10.75;7.72;;;10.00;99.90;;;;;;6339763;22;20022;-70
2023/04/20 11:46:58;;;;;;;14.05;8.43;;;10.00;99.90;;;;;;6339584;22;20472;-69
2023/04/20 11:49:26;;;;;;;14.55;8.65;;;10.10;99.90;;;;;;6366611;22;20064;-69
2023/04/20 11:51:52;;;;;;;12.45;8.27;;;10.20;99.90;;;;;;6338463;22;20025;-68
2023/04/20 11:54:18;;;;;;;12.05;8.23;;;10.30;99.90;;;;;;6366514;22;20338;-70
2023/04/20 11:56:44;;;;;;;13.68;8.32;;;10.30;99.90;;;;;;6338324;22;20029;-70
2023/04/20 11:59:10;;;;;;;11.48;7.85;;;10.30;99.90;;;;;;6338457;22;20022;-70
2023/04/20 12:01:36;;;;;;;11.93;7.40;;;10.20;99.90;;;;;;6366822;22;20129;-70
2023/04/20 12:04:03;;;;;;;13.30;8.13;;;10.10;99.90;;;;;;6365989;22;20016;-68
2023/04/20 12:06:30;;;;;;;13.82;8.20;;;10.10;99.90;;;;;;6337823;22;20044;-68
2023/04/20 12:08:56;;;;;;;11.02;8.02;;;10.20;99.90;;;;;;6337228;22;20437;-68
2023/04/20 12:11:22;;;;;;;11.13;7.68;;;10.20;99.90;;;;;;6336632;22;20044;-67
2023/04/20 12:13:48;;;;;;;11.40;7.32;;;10.20;99.90;;;;;;6336044;22;20562;-66
2023/04/20 12:16:13;;;;;;;13.75;7.47;;;10.20;99.90;;;;;;6364815;22;20058;-67
2023/04/20 12:18:40;;;;;;;9.02;7.50;;;10.30;99.90;;;;;;6364276;22;20058;-66
2023/04/20 12:21:06;;;;;;;11.07;7.47;;;10.30;99.90;;;;;;6364552;22;20022;-67
2023/04/20 12:23:33;;;;;;;12.73;8.88;;;10.40;99.90;;;;;;6364590;22;20018;-69
2023/04/20 12:25:58;;;;;;;12.85;8.63;;;10.40;99.90;;;;;;6364432;22;20014;-68
2023/04/20 12:28:24;;;;;;;9.27;7.30;;;10.50;99.90;;;;;;6336337;22;20097;-68
2023/04/20 12:30:50;;;;;;;9.90;7.78;;;10.40;99.90;;;;;;6364660;22;20030;-68
2023/04/20 12:33:16;;;;;;;12.27;7.95;;;10.40;99.90;;;;;;6364699;22;20105;-66
2023/04/20 12:35:43;;;;;;;11.85;6.88;;;10.40;99.90;;;;;;6364809;22;20053;-67
2023/04/20 12:38:09;;;;;;;11.90;7.35;;;10.50;99.90;;;;;;6365086;22;20071;-67
2023/04/20 12:40:35;;;;;;;10.18;7.00;;;10.70;99.90;;;;;;6336256;22;20121;-67
2023/04/20 12:43:00;;;;;;;10.52;6.57;;;10.70;99.90;;;;;;6364725;22;20111;-67
2023/04/20 12:45:26;;;;;;;9.45;6.45;;;10.70;99.90;;;;;;6309943;22;20054;-68
2023/04/20 12:47:52;;;;;;;13.85;6.22;;;10.60;99.90;;;;;;6335987;22;20349;-68
2023/04/20 12:50:17;;;;;;;12.43;6.38;;;10.70;99.90;;;;;;6364133;22;20018;-68
2023/04/20 12:52:43;;;;;;;12.80;6.85;;;10.60;99.90;;;;;;6336030;22;20763;-68
2023/04/20 12:55:10;;;;;;;8.65;6.68;;;10.40;99.90;;;;;;6364067;22;20026;-67
2023/04/20 12:57:36;;;;;;;14.77;7.25;;;10.50;99.90;;;;;;6336216;22;20018;-67
2023/04/20 13:00:03;;;;;;;8.77;6.70;;;10.40;99.90;;;;;;6335551;22;20425;-68
2023/04/20 13:02:30;;;;;;;9.30;6.65;;;10.30;99.90;;;;;;6364280;22;20022;-69
2023/04/20 13:04:56;;;;;;;15.77;6.70;;;10.40;99.90;;;;;;6363925;22;20010;-68
2023/04/20 13:07:21;;;;;;;10.93;6.40;;;10.40;99.90;;;;;;6335764;22;20018;-68
2023/04/20 13:09:47;;;;;;;10.80;6.53;;;10.50;99.90;;;;;;6363606;22;20089;-68
2023/04/20 13:12:13;;;;;;;9.60;6.68;;;10.60;99.90;;;;;;6363531;22;20024;-67
2023/04/20 13:14:38;;;;;;;13.20;7.18;;;10.70;99.90;;;;;;6335404;22;20022;-67
2023/04/20 13:17:05;;;;;;;10.73;7.30;;;10.80;99.90;;;;;;6335836;22;20022;-67
2023/04/20 13:19:31;;;;;;;9.45;6.40;;;10.80;99.90;;;;;;6364021;22;20037;-66
2023/04/20 13:21:57;;;;;;;9.95;6.05;;;10.90;99.90;;;;;;6309342;22;20018;-67
2023/04/20 13:24:23;;;;;;;9.02;6.25;;;10.90;99.90;;;;;;6335541;22;20094;-67
2023/04/20 13:26:57;;;;;;;10.75;6.40;;;11.00;99.90;;;;;;6335802;22;20609;-67
2023/04/20 13:29:24;;;;;;;14.18;6.93;;;11.10;99.90;;;;;;6364041;22;20014;-67
2023/04/20 13:31:50;;;;;;;9.90;6.18;;;11.20;99.90;;;;;;6364293;22;20058;-68
2023/04/20 13:34:16;;;;;;;11.23;6.82;;;11.40;99.90;;;;;;6336393;22;20018;-67
2023/04/20 13:36:43;;;;;;;10.00;6.20;;;11.60;99.90;;;;;;6336001;22;20019;-67
2023/04/20 13:39:10;;;;;;;7.75;5.85;;;11.60;99.90;;;;;;6335673;22;20136;-67
2023/04/20 13:41:36;;;;;;;9.57;5.78;;;11.60;99.90;;;;;;6363861;22;20048;-68
2023/04/20 13:44:02;;;;;;;13.23;5.35;;;11.80;99.90;;;;;;6363444;22;20355;-68
2023/04/20 13:46:28;;;;;;;6.35;5.45;;;12.00;99.90;;;;;;6363483;22;20393;-68
2023/04/20 13:48:54;;;;;;;8.68;5.57;;;12.10;99.90;;;;;;6335885;22;20036;-68
2023/04/20 13:51:19;;;;;;;9.73;5.57;;;11.90;99.90;;;;;;6364398;22;20022;-68
2023/04/20 13:53:48;;;;;;;8.93;5.97;;;11.90;99.90;;;;;;6363817;22;20018;-68
2023/04/20 13:56:15;;;;;;;8.30;5.70;;;11.70;99.90;;;;;;6363366;22;20148;-68
2023/04/20 13:58:41;;;;;;;10.32;6.43;;;11.60;99.90;;;;;;6335231;22;20018;-68
2023/04/20 14:01:09;;;;;;;10.80;6.05;;;11.60;99.90;;;;;;6363611;22;20506;-68
2023/04/20 14:03:35;;;;;;;8.38;5.65;;;11.80;99.90;;;;;;6363758;22;20464;-68
2023/04/20 14:06:02;;;;;;;10.68;5.72;;;11.80;99.90;;;;;;6364096;22;20018;-69
2023/04/20 14:08:28;;;;;;;13.23;7.07;;;11.80;99.90;;;;;;6335288;22;20018;-69
2023/04/20 14:10:54;;;;;;;7.35;5.82;;;11.80;99.90;;;;;;6363984;22;20025;-69
2023/04/20 14:13:20;;;;;;;12.55;6.18;;;11.80;99.90;;;;;;6336248;22;20022;-69
2023/04/20 14:15:46;;;;;;;8.35;6.28;;;11.70;99.90;;;;;;6336679;22;20026;-69
2023/04/20 14:18:12;;;;;;;10.23;5.45;;;11.70;99.90;;;;;;6336539;22;20334;-69
2023/04/20 14:20:37;;;;;;;7.65;5.28;;;11.80;99.90;;;;;;6364784;22;20149;-68
2023/04/20 14:23:03;;;;;;;12.13;5.97;;;11.80;99.90;;;;;;6336651;22;20022;-68
2023/04/20 14:25:29;;;;;;;8.52;5.80;;;11.80;99.90;;;;;;6336879;22;20049;-68
2023/04/20 14:27:55;;;;;;;7.47;5.20;;;11.80;99.90;;;;;;6364849;22;20071;-68
2023/04/20 14:30:20;;;;;;;7.75;5.25;;;11.90;99.90;;;;;;6364944;22;20357;-68
2023/04/20 14:32:57;;;;;;;7.13;5.15;;;11.90;99.90;;;;;;6364438;22;20091;-68
2023/04/20 14:35:25;;;;;;;7.55;5.70;;;11.90;99.90;;;;;;6336481;22;20014;-68
2023/04/20 14:37:50;;;;;;;10.00;5.88;;;12.00;99.90;;;;;;6364795;22;20049;-68
2023/04/20 14:40:17;;;;;;;8.65;5.35;;;12.10;99.90;;;;;;6336464;22;20022;-68
2023/04/20 14:42:43;;;;;;;8.00;5.57;;;12.10;99.90;;;;;;6365463;22;20124;-68
2023/04/20 14:45:09;;;;;;;11.23;5.55;;;12.40;99.90;;;;;;6364501;22;20729;-68
2023/04/20 14:47:35;;;;;;;9.35;5.90;;;12.30;99.90;;;;;;6336517;22;20085;-68
2023/04/20 14:50:01;;;;;;;8.00;5.50;;;12.10;99.90;;;;;;6364904;22;20050;-68
2023/04/20 14:52:27;;;;;;;8.02;5.72;;;12.00;99.90;;;;;;6364147;22;20044;-68
2023/04/20 14:54:52;;;;;;;8.48;5.90;;;11.90;99.90;;;;;;6364216;22;20010;-68